Time;durP1;ratioP1;P1;durP2;ratioP2;P2;SDS_P1;SDS_P2;PMS_P1;PMS_P2;Temp;Humidity;BMP_temperature;BMP_pressure;BME280_temperature;BME280_humidity;BME280_pressure;Samples;Min_cycle;Max_cycle;Signal;HPM_P1;HPM_P2
2022/05/20 00:00:05;;;;;;;;;0.75;0.75;;;;;29.34;100.00;101126.59;5042867;28;51414;-47
2022/05/20 00:02:50;;;;;;;;;5.75;1.50;;;;;29.35;100.00;101131.06;5043172;28;51198;-47
2022/05/20 00:05:35;;;;;;;;;4.75;2.00;;;;;29.34;100.00;101138.44;5042138;28;51163;-47
2022/05/20 00:08:20;;;;;;;;;7.75;3.75;;;;;29.35;100.00;101125.59;5043379;28;51154;-47
2022/05/20 00:11:05;;;;;;;;;5.50;2.75;;;;;29.36;100.00;101130.09;5042886;28;51173;-48
2022/05/20 00:13:50;;;;;;;;;2.25;2.25;;;;;29.31;100.00;101116.72;5042911;28;51489;-50
2022/05/20 00:16:37;;;;;;;;;5.00;2.75;;;;;29.33;100.00;101119.34;5043342;28;51404;-49
2022/05/20 00:19:22;;;;;;;;;6.75;3.25;;;;;29.32;100.00;101115.72;5042678;28;52953;-48
2022/05/20 00:22:06;;;;;;;;;2.00;2.00;;;;;29.32;100.00;101110.25;5041851;28;51132;-47
2022/05/20 00:27:54;;;;;;;;;3.25;1.50;;;;;29.31;100.00;101107.63;5042309;28;51075;-48
2022/05/20 00:30:39;;;;;;;;;4.50;3.50;;;;;29.25;100.00;101097.13;5039713;28;51126;-46
2022/05/20 00:33:25;;;;;;;;;6.75;2.00;;;;;29.35;100.00;101106.41;5038894;28;51059;-47
2022/05/20 00:36:09;;;;;;;;;5.75;2.75;;;;;29.42;100.00;101126.00;5042380;28;51089;-47
2022/05/20 00:38:54;;;;;;;;;3.00;2.00;;;;;29.44;100.00;101127.63;5040338;28;51101;-50
2022/05/20 00:41:39;;;;;;;;;7.50;2.50;;;;;29.37;100.00;101108.03;5041740;28;51442;-48
2022/05/20 00:44:23;;;;;;;;;2.75;1.00;;;;;29.49;100.00;101122.66;5041640;28;51221;-49
2022/05/20 00:47:09;;;;;;;;;6.00;4.50;;;;;29.44;100.00;101111.16;5041628;28;51082;-50
2022/05/20 00:49:56;;;;;;;;;4.00;1.50;;;;;29.48;100.00;101114.53;5040374;28;51160;-47
2022/05/20 00:52:44;;;;;;;;;4.00;2.75;;;;;29.41;100.00;101096.84;5040307;28;51170;-50
2022/05/20 00:55:28;;;;;;;;;8.00;3.75;;;;;29.43;100.00;101092.97;5041063;28;51199;-49
2022/05/20 00:58:21;;;;;;;;;4.25;3.50;;;;;29.43;100.00;101095.72;5040992;28;51162;-46
2022/05/20 01:01:05;;;;;;;;;4.75;2.75;;;;;29.49;100.00;101108.97;5039485;28;51045;-49
2022/05/20 01:03:51;;;;;;;;;3.00;2.00;;;;;29.50;100.00;101110.72;5038428;28;51172;-50
2022/05/20 01:06:36;;;;;;;;;4.50;3.00;;;;;29.49;100.00;101110.81;5042128;28;51174;-50
2022/05/20 01:09:20;;;;;;;;;2.75;2.00;;;;;29.56;100.00;101113.94;5041112;28;51243;-48
2022/05/20 01:12:06;;;;;;;;;2.25;2.00;;;;;29.58;100.00;101110.09;5041484;28;51231;-50
2022/05/20 01:14:51;;;;;;;;;7.25;3.75;;;;;29.62;100.00;101111.59;5035719;28;51264;-47
2022/05/20 01:17:37;;;;;;;;;4.00;2.00;;;;;29.61;100.00;101107.13;5039692;28;51182;-49
2022/05/20 01:20:31;;;;;;;;;4.25;3.25;;;;;29.59;100.00;101108.22;5039360;28;51184;-50
2022/05/20 01:23:18;;;;;;;;;6.00;3.25;;;;;29.59;100.00;101103.63;5037476;28;51103;-50
2022/05/20 01:26:04;;;;;;;;;2.75;2.50;;;;;29.57;100.00;101091.03;5040151;28;51551;-45
2022/05/20 01:28:49;;;;;;;;;6.25;3.50;;;;;29.59;100.00;101102.75;5041467;28;51110;-48
2022/05/20 01:31:34;;;;;;;;;4.50;4.00;;;;;29.57;100.00;101083.69;5035759;28;51269;-51
2022/05/20 01:34:20;;;;;;;;;4.50;3.00;;;;;29.61;100.00;101087.91;5032403;28;51242;-48
2022/05/20 01:37:04;;;;;;;;;4.00;3.00;;;;;29.62;100.00;101083.31;5040896;28;51174;-47
2022/05/20 01:39:49;;;;;;;;;6.25;5.00;;;;;29.58;100.00;101076.31;5040464;28;51177;-47
2022/05/20 01:42:40;;;;;;;;;6.00;3.00;;;;;29.60;100.00;101079.81;5040663;28;51100;-47
2022/05/20 01:45:48;;;;;;;;;4.50;3.25;;;;;29.61;100.00;101073.34;5035312;28;51257;-48
2022/05/20 01:48:53;;;;;;;;;8.50;4.00;;;;;29.62;100.00;101066.88;5040874;28;51101;-49
2022/05/20 01:52:06;;;;;;;;;10.75;5.25;;;;;29.61;100.00;101057.75;5040099;28;51506;-50
2022/05/20 01:55:21;;;;;;;;;10.25;4.75;;;;;29.62;100.00;101045.78;5031110;28;51268;-47
2022/05/20 01:58:16;;;;;;;;;6.00;3.25;;;;;29.61;100.00;101045.94;5036486;28;51375;-47
2022/05/20 02:01:04;;;;;;;;;4.00;3.25;;;;;29.60;100.00;101045.03;5031361;28;51226;-48
2022/05/20 02:03:53;;;;;;;;;5.50;2.75;;;;;29.64;100.00;101056.63;5039191;28;51130;-49
2022/05/20 02:06:45;;;;;;;;;3.00;2.75;;;;;29.65;100.00;101055.63;5038196;28;51133;-47
2022/05/20 02:09:38;;;;;;;;;8.00;3.25;;;;;29.61;100.00;101054.16;5039876;28;51122;-47
2022/05/20 02:12:25;;;;;;;;;8.75;3.00;;;;;29.60;100.00;101050.53;5039195;28;51387;-50
2022/05/20 02:15:19;;;;;;;;;3.25;2.75;;;;;29.68;100.00;101059.00;5036987;28;51035;-46
2022/05/20 02:18:06;;;;;;;;;7.25;2.75;;;;;29.72;100.00;101056.03;5032439;28;51580;-50
2022/05/20 02:20:54;;;;;;;;;3.75;3.75;;;;;29.76;100.00;101049.31;5034867;28;51174;-48
2022/05/20 02:23:46;;;;;;;;;6.00;2.75;;;;;29.74;100.00;101038.44;5039012;28;51441;-45
2022/05/20 02:26:46;;;;;;;;;2.25;2.25;;;;;29.76;100.00;101035.59;5040231;28;51194;-49
2022/05/20 02:29:37;;;;;;;;;4.75;3.00;;;;;29.86;100.00;101042.09;5040668;28;51118;-48
2022/05/20 02:32:35;;;;;;;;;5.25;2.75;;;;;29.86;100.00;101038.44;5039013;28;51187;-47
2022/05/20 02:35:19;;;;;;;;;4.00;1.25;;;;;29.86;100.00;101033.84;5029697;28;51579;-50
2022/05/20 02:38:10;;;;;;;;;1.75;1.75;;;;;29.79;100.00;101038.97;5038990;28;51328;-46
2022/05/20 02:40:54;;;;;;;;;4.00;3.00;;;;;29.77;100.00;101040.09;5040565;28;51151;-50
2022/05/20 02:43:39;;;;;;;;;5.50;2.00;;;;;29.73;100.00;101036.72;5040030;28;51355;-47
2022/05/20 02:46:23;;;;;;;;;2.50;2.00;;;;;29.71;100.00;101030.50;5039831;28;51188;-46
2022/05/20 02:49:08;;;;;;;;;3.00;1.50;;;;;29.67;100.00;101016.16;5035247;28;51437;-49
2022/05/20 02:51:53;;;;;;;;;5.00;3.75;;;;;29.63;100.00;101008.31;5039908;28;51084;-50
2022/05/20 02:54:38;;;;;;;;;2.75;2.75;;;;;29.63;100.00;101008.31;5039722;28;51209;-49
2022/05/20 02:57:22;;;;;;;;;3.50;2.00;;;;;29.66;100.00;101006.19;5039637;28;51259;-48
2022/05/20 03:06:17;;;;;;;;;4.50;1.50;;;;;29.55;100.00;101008.91;5040214;28;51120;-48
2022/05/20 03:09:01;;;;;;;;;4.00;2.25;;;;;29.52;100.00;101010.00;5039522;28;51071;-48
2022/05/20 03:11:46;;;;;;;;;6.00;3.00;;;;;29.56;100.00;101018.00;5039532;28;51167;-48
2022/05/20 03:14:32;;;;;;;;;1.00;1.00;;;;;29.58;100.00;101013.25;5039568;28;51122;-51
2022/05/20 03:17:16;;;;;;;;;5.25;3.50;;;;;29.54;100.00;101009.91;5039649;28;51143;-48
2022/05/20 03:20:01;;;;;;;;;1.00;1.00;;;;;29.60;100.00;101022.25;5039519;28;51458;-46
2022/05/20 03:22:46;;;;;;;;;3.00;2.50;;;;;29.60;100.00;101030.47;5039461;28;51104;-48
2022/05/20 03:25:30;;;;;;;;;3.50;3.50;;;;;29.63;100.00;101035.72;5039484;28;51100;-49
2022/05/20 03:28:15;;;;;;;;;3.75;2.75;;;;;29.66;100.00;101038.19;5038901;28;51046;-47
2022/05/20 03:31:07;;;;;;;;;2.50;1.75;;;;;29.61;100.00;101043.19;5039862;28;51017;-47
2022/05/20 03:33:52;;;;;;;;;3.50;2.50;;;;;29.62;100.00;101047.69;5036039;28;51240;-48
2022/05/20 03:36:39;;;;;;;;;4.00;2.75;;;;;29.68;100.00;101049.91;5036454;28;51254;-49
2022/05/20 03:39:25;;;;;;;;;7.25;3.25;;;;;29.61;100.00;101049.53;5037475;28;51366;-47
2022/05/20 03:42:09;;;;;;;;;3.25;3.00;;;;;29.65;100.00;101061.13;5039667;28;51331;-44
2022/05/20 03:44:54;;;;;;;;;3.75;2.75;;;;;29.59;100.00;101050.66;5039117;28;51541;-47
2022/05/20 03:47:39;;;;;;;;;2.50;2.50;;;;;29.60;100.00;101050.53;5039641;28;51152;-48
2022/05/20 03:50:23;;;;;;;;;2.75;2.75;;;;;29.60;100.00;101057.88;5039366;28;51147;-47
2022/05/20 03:53:08;;;;;;;;;5.25;2.75;;;;;29.58;100.00;101063.47;5038967;28;51187;-48
2022/05/20 03:55:52;;;;;;;;;3.75;2.75;;;;;29.61;100.00;101065.97;5039453;28;51232;-49
2022/05/20 03:58:37;;;;;;;;;6.25;3.75;;;;;29.60;100.00;101066.97;5038962;28;51363;-49
2022/05/20 04:04:37;;;;;;;;;6.00;2.75;;;;;29.57;100.00;101080.94;5039562;28;51353;-49
2022/05/20 04:07:26;;;;;;;;;3.00;3.00;;;;;29.61;100.00;101081.56;5039078;28;51171;-47
2022/05/20 04:10:10;;;;;;;;;5.25;3.00;;;;;29.64;100.00;101084.06;5037592;28;51276;-47
2022/05/20 04:12:55;;;;;;;;;2.75;2.75;;;;;29.65;100.00;101077.56;5037994;28;51211;-47
2022/05/20 04:15:39;;;;;;;;;6.25;3.50;;;;;29.64;100.00;101081.31;5039306;28;51494;-48
2022/05/20 04:18:24;;;;;;;;;4.75;4.75;;;;;29.62;100.00;101072.34;5038652;28;51042;-49
2022/05/20 04:21:10;;;;;;;;;6.25;4.00;;;;;29.63;100.00;101082.34;5038850;28;51106;-47
2022/05/20 04:23:55;;;;;;;;;3.75;3.25;;;;;29.64;100.00;101089.53;5038980;28;51224;-47
2022/05/20 04:26:39;;;;;;;;;7.50;4.50;;;;;29.67;100.00;101094.78;5038993;28;51189;-46
2022/05/20 04:29:23;;;;;;;;;5.50;3.00;;;;;29.69;100.00;101095.53;5038892;28;51195;-45
2022/05/20 04:32:08;;;;;;;;;4.75;3.25;;;;;29.65;100.00;101100.41;5051451;28;51164;-49
2022/05/20 04:34:53;;;;;;;;;10.50;3.00;;;;;29.65;100.00;101094.91;5029705;28;51643;-49
2022/05/20 04:37:37;;;;;;;;;7.50;3.25;;;;;29.70;100.00;101094.56;5040371;28;51088;-46
2022/05/20 04:40:22;;;;;;;;;2.75;2.00;;;;;29.74;100.00;101104.25;5042259;28;51223;-49
2022/05/20 04:49:13;;;;;;;;;5.00;5.00;;;;;29.81;100.00;101107.41;5041930;28;51182;-47
2022/05/20 04:52:00;;;;;;;;;5.25;2.75;;;;;29.78;100.00;101103.03;5042061;28;51202;-49
2022/05/20 04:54:50;;;;;;;;;6.25;4.50;;;;;29.73;100.00;101094.31;5042140;28;51357;-46
2022/05/20 04:57:44;;;;;;;;;5.00;4.75;;;;;29.78;100.00;101100.28;5041507;28;51172;-47
2022/05/20 05:00:30;;;;;;;;;6.25;4.00;;;;;29.74;100.00;101101.53;5041761;28;50985;-47
2022/05/20 05:03:15;;;;;;;;;4.25;3.50;;;;;29.79;100.00;101113.00;5042089;28;51068;-50
2022/05/20 05:05:59;;;;;;;;;6.75;3.75;;;;;29.78;100.00;101122.22;5042224;28;51311;-48
2022/05/20 05:08:44;;;;;;;;;6.75;4.75;;;;;29.77;100.00;101120.47;5041756;28;51091;-48
2022/05/20 05:11:28;;;;;;;;;4.00;2.75;;;;;29.79;100.00;101121.25;5042038;28;51093;-49
2022/05/20 05:14:16;;;;;;;;;5.00;3.25;;;;;29.78;100.00;101124.13;5041530;28;51162;-50
2022/05/20 05:17:00;;;;;;;;;5.50;3.50;;;;;29.79;100.00;101123.13;5041659;28;51308;-47
2022/05/20 05:19:45;;;;;;;;;4.75;2.75;;;;;29.81;100.00;101132.97;5042022;28;51403;-46
2022/05/20 05:22:29;;;;;;;;;3.50;3.00;;;;;29.78;100.00;101126.88;5041692;28;51170;-47
2022/05/20 05:25:14;;;;;;;;;7.75;5.75;;;;;29.84;100.00;101126.38;5040646;28;51195;-47
2022/05/20 05:27:58;;;;;;;;;7.00;4.00;;;;;29.75;100.00;101121.59;5041538;28;51272;-46
2022/05/20 05:30:48;;;;;;;;;7.75;4.75;;;;;29.77;100.00;101131.44;5041468;28;51190;-48
2022/05/20 05:33:32;;;;;;;;;9.25;4.50;;;;;29.78;100.00;101126.88;5041182;28;51195;-48
2022/05/20 05:36:18;;;;;;;;;6.75;3.75;;;;;29.75;100.00;101136.19;5039374;28;51084;-46
2022/05/20 05:39:03;;;;;;;;;9.75;9.00;;;;;29.79;100.00;101145.06;5039543;28;51660;-47
2022/05/20 05:41:47;;;;;;;;;9.75;5.75;;;;;29.78;100.00;101144.19;5037523;28;51405;-49
2022/05/20 05:44:32;;;;;;;;;7.75;4.75;;;;;29.83;100.00;101154.78;5040769;28;51191;-50
2022/05/20 05:47:17;;;;;;;;;6.75;4.50;;;;;29.95;100.00;101162.06;5039433;28;51196;-46
2022/05/20 05:50:01;;;;;;;;;7.00;7.00;;;;;29.98;100.00;101155.47;5036397;28;51471;-47
2022/05/20 05:52:45;;;;;;;;;7.00;5.00;;;;;30.08;100.00;101167.44;5039259;28;51204;-47
2022/05/20 05:55:30;;;;;;;;;4.25;4.00;;;;;30.14;100.00;101172.47;5038877;28;51189;-48
2022/05/20 05:58:15;;;;;;;;;8.00;7.00;;;;;30.18;100.00;101169.44;5038144;28;51134;-47
2022/05/20 06:01:00;;;;;;;;;10.50;7.50;;;;;30.18;100.00;101166.72;5038893;28;51199;-45
2022/05/20 06:03:45;;;;;;;;;11.75;8.00;;;;;30.20;100.00;101165.63;5040281;28;51146;-46
2022/05/20 06:06:29;;;;;;;;;7.50;6.00;;;;;30.24;100.00;101171.72;5038005;28;51163;-49
2022/05/20 06:09:14;;;;;;;;;6.25;5.00;;;;;30.25;100.00;101162.50;5037555;28;51174;-48
2022/05/20 06:12:01;;;;;;;;;9.50;6.50;;;;;30.26;100.00;101175.22;5037091;28;51160;-50
2022/05/20 06:14:45;;;;;;;;;11.75;6.50;;;;;30.30;100.00;101169.38;5038232;28;51277;-51
2022/05/20 06:17:31;;;;;;;;;7.50;7.00;;;;;30.38;100.00;101168.72;5040315;28;51064;-50
2022/05/20 06:20:16;;;;;;;;;8.00;3.75;;;;;30.45;100.00;101172.72;5039237;28;51182;-50
2022/05/20 06:23:01;;;;;;;;;8.00;4.00;;;;;30.54;100.00;101178.50;5038325;28;51234;-49
2022/05/20 06:25:46;;;;;;;;;7.75;3.50;;;;;30.74;100.00;101185.13;5040633;28;51056;-50
2022/05/20 06:28:30;;;;;;;;;7.50;4.00;;;;;30.97;100.00;101196.94;5039466;28;51193;-50
2022/05/20 06:31:15;;;;;;;;;6.75;3.25;;;;;31.08;100.00;101198.75;5039790;28;51093;-51
2022/05/20 06:33:59;;;;;;;;;5.25;2.75;;;;;31.18;100.00;101208.00;5037869;28;51135;-49
2022/05/20 06:39:50;;;;;;;;;11.50;6.00;;;;;32.09;100.00;101217.78;5038804;28;51418;-50
2022/05/20 06:42:35;;;;;;;;;10.50;8.50;;;;;32.80;100.00;101227.19;5038450;28;51221;-49
2022/05/20 06:45:20;;;;;;;;;4.50;3.25;;;;;33.32;100.00;101236.16;5036848;28;51115;-52
2022/05/20 06:48:05;;;;;;;;;4.75;2.00;;;;;33.93;100.00;101247.16;5039428;28;51242;-52
2022/05/20 06:50:50;;;;;;;;;5.75;4.00;;;;;34.95;100.00;101262.16;5035431;28;51405;-49
2022/05/20 06:53:34;;;;;;;;;8.25;5.50;;;;;36.03;100.00;101277.19;5030351;28;51215;-49
2022/05/20 06:56:20;;;;;;;;;3.00;2.00;;;;;37.11;100.00;101278.75;5038364;28;51153;-50
2022/05/20 06:59:06;;;;;;;;;6.25;2.50;;;;;38.29;100.00;101288.88;5038230;28;51167;-49
2022/05/20 07:01:52;;;;;;;;;5.50;3.25;;;;;39.25;100.00;101299.22;5035494;28;51268;-50
2022/05/20 07:04:37;;;;;;;;;4.00;3.00;;;;;40.06;100.00;101305.31;5039202;28;51140;-50
2022/05/20 07:07:22;;;;;;;;;6.75;2.00;;;;;41.00;100.00;101322.72;5039262;28;51147;-50
2022/05/20 07:10:09;;;;;;;;;5.75;3.00;;;;;41.95;100.00;101328.41;5038239;28;51393;-49
2022/05/20 07:12:54;;;;;;;;;0.25;0.25;;;;;42.50;98.45;101330.63;5038260;28;51173;-51
2022/05/20 07:15:38;;;;;;;;;1.75;1.75;;;;;42.42;96.11;101334.44;5039293;28;51124;-50
2022/05/20 07:18:28;;;;;;;;;3.50;1.00;;;;;42.00;94.26;101323.09;5038635;28;51209;-51
2022/05/20 07:21:12;;;;;;;;;2.25;1.00;;;;;41.55;94.17;101339.16;5038106;28;51189;-53
2022/05/20 07:23:57;;;;;;;;;6.50;4.00;;;;;40.65;93.68;101334.44;5037571;28;51299;-50
2022/05/20 07:26:41;;;;;;;;;19.25;17.00;;;;;39.53;97.16;101333.03;5037935;28;51245;-51
2022/05/20 07:29:29;;;;;;;;;20.25;20.25;;;;;38.31;100.00;101325.66;5036331;28;52142;-52
2022/05/20 07:32:13;;;;;;;;;20.25;18.25;;;;;37.19;100.00;101335.16;5038206;28;51143;-51
2022/05/20 07:34:58;;;;;;;;;17.50;15.00;;;;;36.41;100.00;101322.13;5035095;28;51624;-48
2022/05/20 07:37:42;;;;;;;;;19.75;17.00;;;;;35.96;100.00;101327.69;5038806;28;51206;-50
2022/05/20 07:40:27;;;;;;;;;19.75;18.25;;;;;35.46;100.00;101325.38;5037726;28;51159;-49
2022/05/20 07:43:12;;;;;;;;;18.75;17.25;;;;;34.90;100.00;101323.41;5038420;28;51496;-50
2022/05/20 07:45:56;;;;;;;;;15.25;13.75;;;;;34.48;100.00;101318.31;5038944;28;51122;-50
2022/05/20 07:48:41;;;;;;;;;19.25;17.00;;;;;34.09;100.00;101321.94;5037143;28;51260;-50
2022/05/20 07:51:28;;;;;;;;;20.50;20.50;;;;;34.05;100.00;101315.00;5039832;28;50494;-49
2022/05/20 07:54:15;;;;;;;;;19.50;17.50;;;;;34.08;100.00;101314.69;5038581;28;51175;-53
2022/05/20 07:57:04;;;;;;;;;19.50;16.25;;;;;34.07;100.00;101318.50;5037391;28;51014;-50
2022/05/20 07:59:50;;;;;;;;;18.75;15.25;;;;;34.22;100.00;101320.78;5038906;28;51464;-51
2022/05/20 08:02:35;;;;;;;;;23.00;18.75;;;;;34.36;100.00;101323.09;5041435;28;51191;-51
2022/05/20 08:05:21;;;;;;;;;26.50;21.50;;;;;34.64;100.00;101327.88;5042083;28;51036;-50
2022/05/20 08:08:07;;;;;;;;;20.00;16.75;;;;;34.69;100.00;101337.47;5038004;28;51501;-49
2022/05/20 08:10:52;;;;;;;;;19.50;16.75;;;;;34.70;100.00;101336.44;5039248;28;51151;-53
2022/05/20 08:13:36;;;;;;;;;19.75;19.00;;;;;34.81;100.00;101338.16;5041227;28;51210;-52
2022/05/20 08:16:20;;;;;;;;;21.25;18.75;;;;;34.91;100.00;101339.00;5045025;28;51436;-50
2022/05/20 08:19:05;;;;;;;;;18.00;14.75;;;;;34.94;100.00;101343.38;5041998;28;51150;-52
2022/05/20 08:21:50;;;;;;;;;18.00;17.25;;;;;34.79;100.00;101345.72;5037023;28;51133;-51
2022/05/20 08:24:34;;;;;;;;;22.00;17.25;;;;;34.62;100.00;101344.59;5045932;28;51053;-50
2022/05/20 08:27:25;;;;;;;;;17.75;14.75;;;;;34.53;100.00;101348.25;5041812;28;51109;-51
2022/05/20 08:30:13;;;;;;;;;17.00;14.50;;;;;34.60;100.00;101339.22;5042045;28;51260;-50
2022/05/20 08:32:58;;;;;;;;;19.75;16.75;;;;;34.75;100.00;101341.53;5039046;28;51386;-51
2022/05/20 08:35:42;;;;;;;;;21.25;18.25;;;;;34.94;100.00;101348.91;5041747;28;51175;-49
2022/05/20 08:38:27;;;;;;;;;21.25;17.00;;;;;34.94;100.00;101354.44;5041143;28;51098;-49
2022/05/20 08:41:24;;;;;;;;;14.00;13.50;;;;;34.90;100.00;101337.25;5042463;28;51108;-51
2022/05/20 08:44:12;;;;;;;;;13.75;13.75;;;;;34.99;100.00;101334.63;5044424;28;51225;-51
2022/05/20 08:47:13;;;;;;;;;15.00;12.00;;;;;35.01;100.00;101349.16;5038527;28;51226;-49
2022/05/20 08:50:00;;;;;;;;;15.75;12.25;;;;;34.70;100.00;101353.03;5040119;28;51419;-49
2022/05/20 08:52:45;;;;;;;;;3.75;2.25;;;;;34.62;100.00;101352.03;5041402;28;51134;-51
2022/05/20 08:55:30;;;;;;;;;7.25;5.25;;;;;34.62;100.00;101352.88;5041582;28;51075;-49
2022/05/20 08:58:18;;;;;;;;;6.00;6.00;;;;;34.65;100.00;101358.13;5041806;28;51567;-52
2022/05/20 09:01:03;;;;;;;;;9.00;7.00;;;;;34.65;100.00;101360.88;5040071;28;51212;-51
2022/05/20 09:03:48;;;;;;;;;6.75;5.50;;;;;34.80;100.00;101363.19;5040176;28;51126;-50
2022/05/20 09:06:36;;;;;;;;;6.00;5.50;;;;;34.73;100.00;101368.44;5042440;28;51298;-51
2022/05/20 09:09:21;;;;;;;;;8.75;8.75;;;;;34.73;100.00;101374.81;5041746;28;51542;-51
2022/05/20 09:12:06;;;;;;;;;13.00;7.25;;;;;34.60;100.00;101369.63;5040333;28;51323;-49
2022/05/20 09:18:07;;;;;;;;;12.25;11.25;;;;;34.55;100.00;101376.63;5042134;28;51158;-53
2022/05/20 09:20:53;;;;;;;;;14.50;9.50;;;;;34.32;100.00;101365.84;5045159;28;51104;-49
2022/05/20 09:23:53;;;;;;;;;12.25;10.75;;;;;34.25;100.00;101364.69;5041268;28;51181;-51
2022/05/20 09:26:39;;;;;;;;;16.00;9.50;;;;;34.22;100.00;101342.88;5040969;28;51347;-54
2022/05/20 09:29:30;;;;;;;;;12.25;10.00;;;;;34.19;100.00;101362.50;5038930;28;51201;-52
2022/05/20 09:32:30;;;;;;;;;14.25;8.50;;;;;34.13;100.00;101355.66;5041884;28;51048;-51
2022/05/20 09:35:17;;;;;;;;;10.25;8.25;;;;;34.26;100.00;101358.16;5040498;28;51441;-52
2022/05/20 09:38:29;;;;;;;;;8.00;7.00;;;;;34.40;100.00;101359.63;5040938;28;51291;-49
2022/05/20 09:41:22;;;;;;;;;10.50;8.00;;;;;34.32;100.00;101359.47;5040937;28;51006;-49
2022/05/20 09:44:07;;;;;;;;;11.00;9.25;;;;;34.24;100.00;101361.03;5040610;28;51131;-49
2022/05/20 09:47:00;;;;;;;;;10.50;10.00;;;;;34.26;100.00;101360.91;5041002;28;51075;-50
2022/05/20 09:49:55;;;;;;;;;10.75;9.25;;;;;34.17;100.00;101370.06;5040231;28;51612;-50
2022/05/20 09:52:50;;;;;;;;;9.50;8.00;;;;;34.28;100.00;101372.69;5040931;28;51504;-50
2022/05/20 09:55:38;;;;;;;;;10.50;8.00;;;;;34.27;100.00;101357.13;5039831;28;51197;-51
2022/05/20 09:58:28;;;;;;;;;4.75;4.00;;;;;34.28;100.00;101364.41;5040853;28;51135;-50
2022/05/20 10:01:15;;;;;;;;;7.25;5.50;;;;;34.17;100.00;101364.56;5035475;28;51428;-49
2022/05/20 10:04:03;;;;;;;;;5.00;3.25;;;;;34.08;100.00;101349.72;5038869;28;51092;-50
2022/05/20 10:06:52;;;;;;;;;5.00;5.00;;;;;33.96;100.00;101355.38;5037526;28;51392;-49
2022/05/20 10:10:00;;;;;;;;;4.75;4.50;;;;;33.90;100.00;101357.84;5039326;28;51097;-51
2022/05/20 10:12:47;;;;;;;;;2.00;0.25;;;;;33.71;100.00;101354.03;5040280;28;51083;-51
2022/05/20 10:15:45;;;;;;;;;5.00;3.75;;;;;33.56;100.00;101360.94;5039033;28;51131;-52
2022/05/20 10:19:06;;;;;;;;;1.00;1.00;;;;;33.55;100.00;101362.84;5039371;28;51466;-48
2022/05/20 10:21:58;;;;;;;;;2.50;1.00;;;;;33.60;100.00;101351.38;4968080;28;51111;-50
2022/05/20 10:25:12;;;;;;;;;4.00;2.50;;;;;33.79;100.00;101354.16;5034171;28;51138;-50
2022/05/20 10:35:09;;;;;;;;;2.50;2.00;;;;;33.81;100.00;101354.03;5033183;28;51475;-48
2022/05/20 10:38:15;;;;;;;;;5.25;3.00;;;;;33.68;100.00;101351.53;5024910;28;51029;-49
2022/05/20 10:41:05;;;;;;;;;3.00;2.00;;;;;33.56;100.00;101338.88;5040188;28;51242;-52
2022/05/20 10:51:04;;;;;;;;;3.25;1.00;;;;;33.55;100.00;101334.41;5011713;28;51284;-50
2022/05/20 10:53:55;;;;;;;;;2.75;2.25;;;;;33.66;100.00;101328.72;5038584;28;51140;-49
2022/05/20 10:56:57;;;;;;;;;5.50;4.25;;;;;33.62;100.00;101330.03;5039045;28;51463;-51
2022/05/20 10:59:51;;;;;;;;;1.75;1.75;;;;;33.56;100.00;101317.69;5038548;28;51197;-52
2022/05/20 11:03:04;;;;;;;;;2.00;2.00;;;;;33.66;100.00;101292.84;5039664;28;51373;-48
2022/05/20 11:06:07;;;;;;;;;3.00;2.00;;;;;33.73;100.00;101294.03;5024739;28;51136;-50
2022/05/20 11:09:06;;;;;;;;;5.00;2.00;;;;;33.91;100.00;101297.00;5039753;28;51103;-49
2022/05/20 11:11:57;;;;;;;;;1.75;1.00;;;;;34.04;100.00;101301.31;5038673;28;51149;-49
2022/05/20 11:15:09;;;;;;;;;6.75;2.00;;;;;33.97;100.00;101293.63;5037190;28;51293;-51
2022/05/20 11:18:23;;;;;;;;;5.50;3.75;;;;;34.04;100.00;101284.75;5038729;28;51071;-50
2022/05/20 11:21:46;;;;;;;;;2.25;1.00;;;;;34.13;100.00;101293.03;5037986;28;51068;-50
2022/05/20 11:24:53;;;;;;;;;2.50;1.50;;;;;34.29;100.00;101295.19;5037729;28;51056;-52
2022/05/20 11:27:54;;;;;;;;;4.00;0.75;;;;;34.41;100.00;101292.31;5023640;28;51234;-52
2022/05/20 11:30:54;;;;;;;;;4.75;1.50;;;;;34.38;100.00;101287.03;5037871;28;51467;-51
2022/05/20 11:33:58;;;;;;;;;0.00;0.00;;;;;34.07;100.00;101278.94;5036651;28;51209;-49
2022/05/20 11:37:07;;;;;;;;;3.75;1.00;;;;;33.87;100.00;101283.59;5035690;28;51244;-48
2022/05/20 11:40:11;;;;;;;;;2.00;1.00;;;;;33.81;100.00;101277.63;5038618;28;51016;-52
2022/05/20 11:43:08;;;;;;;;;2.75;1.25;;;;;33.89;100.00;101276.94;5037299;28;51382;-50
2022/05/20 11:46:12;;;;;;;;;1.00;1.00;;;;;33.79;100.00;101265.84;5040847;28;51170;-51
2022/05/20 11:49:18;;;;;;;;;1.25;1.00;;;;;33.74;100.00;101264.53;5043470;28;51147;-50
2022/05/20 11:52:05;;;;;;;;;2.75;0.75;;;;;33.75;100.00;101264.41;5041253;28;51401;-48
2022/05/20 11:54:56;;;;;;;;;1.25;0.00;;;;;33.80;100.00;101253.81;5043028;28;51136;-51
2022/05/20 11:57:45;;;;;;;;;3.00;2.00;;;;;33.75;100.00;101247.88;5041932;28;51491;-51
2022/05/20 12:00:32;;;;;;;;;2.00;1.00;;;;;33.78;100.00;101250.31;5042892;28;51187;-49
2022/05/20 12:03:21;;;;;;;;;2.00;2.00;;;;;33.72;100.00;101241.72;5042025;28;51235;-49
2022/05/20 12:06:06;;;;;;;;;1.00;1.00;;;;;33.67;100.00;101234.78;5041290;28;51177;-49
2022/05/20 12:09:02;;;;;;;;;0.00;0.00;;;;;33.61;100.00;101228.97;5038282;28;51116;-50
2022/05/20 12:12:24;;;;;;;;;1.00;1.00;;;;;33.67;100.00;101231.13;5041711;28;51165;-50
2022/05/20 12:15:36;;;;;;;;;0.50;0.50;;;;;33.69;100.00;101237.38;5042996;28;51102;-51
2022/05/20 12:24:52;;;;;;;;;2.50;1.50;;;;;33.51;100.00;101218.81;5042537;28;51064;-51
2022/05/20 12:27:39;;;;;;;;;3.00;0.75;;;;;33.59;100.00;101212.56;5041279;28;51220;-51
2022/05/20 12:30:39;;;;;;;;;0.00;0.00;;;;;33.62;100.00;101205.88;5042091;28;51220;-52
2022/05/20 12:34:05;;;;;;;;;0.00;0.00;;;;;33.68;100.00;101206.19;5042515;28;51063;-51
2022/05/20 12:36:50;;;;;;;;;0.00;0.00;;;;;33.72;100.00;101195.72;5042981;28;51580;-52
2022/05/20 12:39:52;;;;;;;;;3.75;1.00;;;;;33.68;100.00;101197.00;5042367;28;51156;-53
2022/05/20 12:42:45;;;;;;;;;2.75;2.75;;;;;33.63;100.00;101189.19;5042638;28;51132;-53
2022/05/20 12:45:55;;;;;;;;;2.00;1.00;;;;;33.68;100.00;101185.97;5042527;28;51128;-53
2022/05/20 12:49:08;;;;;;;;;4.50;1.25;;;;;33.66;100.00;101188.00;5041236;28;51094;-51
2022/05/20 12:52:26;;;;;;;;;1.00;1.00;;;;;33.59;100.00;101187.75;5037238;28;51240;-51
2022/05/20 12:55:46;;;;;;;;;3.00;2.00;;;;;33.50;100.00;101183.97;5039179;28;51239;-49
2022/05/20 12:58:40;;;;;;;;;1.75;1.75;;;;;33.50;100.00;101183.97;5040717;28;51171;-50
2022/05/20 13:01:57;;;;;;;;;0.50;0.50;;;;;33.50;100.00;101181.19;5041842;28;51163;-49
2022/05/20 13:05:23;;;;;;;;;1.75;1.75;;;;;33.42;100.00;101177.41;5041430;28;51342;-50
2022/05/20 13:08:16;;;;;;;;;2.75;0.00;;;;;33.34;100.00;101180.88;5041612;28;51160;-50
2022/05/20 13:11:14;;;;;;;;;2.00;1.00;;;;;33.20;100.00;101162.84;5042441;28;51246;-50
2022/05/20 13:14:12;;;;;;;;;3.25;0.25;;;;;33.22;100.00;101174.63;5040402;28;51473;-48
2022/05/20 13:17:03;;;;;;;;;0.00;0.00;;;;;33.23;100.00;101170.84;5041043;28;51184;-51
2022/05/20 13:20:12;;;;;;;;;3.00;0.75;;;;;33.27;100.00;101176.94;5040599;28;51370;-48
2022/05/20 13:23:06;;;;;;;;;48.00;38.25;;;;;33.25;100.00;101178.97;5041703;28;51116;-47
2022/05/20 13:25:55;;;;;;;;;1.25;1.00;;;;;33.20;100.00;101183.06;5036608;28;51147;-47
2022/05/20 13:28:40;;;;;;;;;6.50;6.00;;;;;33.15;100.00;101178.97;5032329;28;51134;-49
2022/05/20 13:31:26;;;;;;;;;9.25;7.00;;;;;33.10;100.00;101170.25;5039996;28;51434;-50
2022/05/20 13:34:18;;;;;;;;;5.00;4.50;;;;;33.11;100.00;101174.75;5033883;28;51114;-49
2022/05/20 13:37:12;;;;;;;;;54.00;43.75;;;;;33.16;100.00;101177.97;5038451;28;51142;-49
2022/05/20 13:40:20;;;;;;;;;52.75;43.75;;;;;33.12;100.00;101160.84;5040320;28;51430;-49
2022/05/20 13:43:19;;;;;;;;;7.50;5.50;;;;;33.23;100.00;101171.72;5040610;28;51056;-49